Аэропорт: Кызылорда. Кызылорда

ICAO: UAOO

METAR:
2018/07/22 20:00
UAOO 222000Z 01003MPS CAVOK 26/13 Q0999 R05/CLRD70 NOSIG RMK QFE737/0983
METAR:
2018/04/18 00:06
TAF TAF UAOO 172300Z 1700/1809 27006MPS 9999 SCT033 BKN100